Terminal Aerodrome Forecast
Issued by NWS Bismarck, ND

Home | Current Version | Previous Version | Text Only | Print | Product List | Glossary Off
Versions: 1 2 3 4 5 6 7 8 9 10 11 12 13 14 15 16

000
FTUS43 KBIS 270500
TAFISN
TAF
KISN 270539Z 2706/2806 VRB02KT P6SM FEW300
     FM271000 21003KT P6SM SCT300
     FM271600 25007KT P6SM SKC
     FM280200 30004KT P6SM FEW180 SCT250=

USA.gov is the U.S. government's official web portal to all federal, state and local government web resources and services.